sensor_id;sensor_type;location;lat;lon;timestamp;pressure;altitude;pressure_sealevel;temperature;humidity
29371;BME280;16357;52.188;7.838;2023-11-19T00:00:07;100120.81;;;11.96;74.13
29371;BME280;16357;52.188;7.838;2023-11-19T00:02:41;100123.81;;;12.01;73.92
29371;BME280;16357;52.188;7.838;2023-11-19T00:05:10;100121.75;;;12.03;73.95
29371;BME280;16357;52.188;7.838;2023-11-19T00:07:39;100114.34;;;12.05;74.12
29371;BME280;16357;52.188;7.838;2023-11-19T00:10:10;100114.84;;;12.08;74.03
29371;BME280;16357;52.188;7.838;2023-11-19T00:12:39;100102.69;;;12.13;73.93
29371;BME280;16357;52.188;7.838;2023-11-19T00:15:06;100105.22;;;12.14;74.12
29371;BME280;16357;52.188;7.838;2023-11-19T00:17:41;100102.16;;;12.17;74.22
29371;BME280;16357;52.188;7.838;2023-11-19T00:20:12;100097.44;;;12.19;74.06
29371;BME280;16357;52.188;7.838;2023-11-19T00:22:40;100094.38;;;12.22;74.09
29371;BME280;16357;52.188;7.838;2023-11-19T00:25:10;100087.78;;;12.25;74.16
29371;BME280;16357;52.188;7.838;2023-11-19T00:27:37;100089.28;;;12.27;74.17
29371;BME280;16357;52.188;7.838;2023-11-19T00:30:05;100088.69;;;12.32;74.06
29371;BME280;16357;52.188;7.838;2023-11-19T00:32:33;100090.19;;;12.35;74.11
29371;BME280;16357;52.188;7.838;2023-11-19T00:34:59;100085.47;;;12.37;74.22
29371;BME280;16357;52.188;7.838;2023-11-19T00:37:26;100080.75;;;12.39;73.92
29371;BME280;16357;52.188;7.838;2023-11-19T00:39:53;100076.84;;;12.41;74.19
29371;BME280;16357;52.188;7.838;2023-11-19T00:42:19;100070.44;;;12.42;74.20
29371;BME280;16357;52.188;7.838;2023-11-19T00:44:46;100059.34;;;12.45;74.30
29371;BME280;16357;52.188;7.838;2023-11-19T00:47:17;100049.19;;;12.47;74.38
29371;BME280;16357;52.188;7.838;2023-11-19T00:49:50;100055.91;;;12.51;74.13
29371;BME280;16357;52.188;7.838;2023-11-19T00:52:17;100056.72;;;12.52;74.46
29371;BME280;16357;52.188;7.838;2023-11-19T00:54:43;100055.53;;;12.55;74.39
29371;BME280;16357;52.188;7.838;2023-11-19T00:57:10;100043.53;;;12.57;74.49
29371;BME280;16357;52.188;7.838;2023-11-19T00:59:36;100046.91;;;12.59;74.62
29371;BME280;16357;52.188;7.838;2023-11-19T01:02:03;100047.53;;;12.61;74.70
29371;BME280;16357;52.188;7.838;2023-11-19T01:04:36;100060.63;;;12.64;74.44
29371;BME280;16357;52.188;7.838;2023-11-19T01:07:03;100045.97;;;12.67;74.73
29371;BME280;16357;52.188;7.838;2023-11-19T01:09:32;100042.06;;;12.69;74.61
29371;BME280;16357;52.188;7.838;2023-11-19T01:12:01;100039.81;;;12.73;74.62
29371;BME280;16357;52.188;7.838;2023-11-19T01:14:28;100040.47;;;12.75;74.58
29371;BME280;16357;52.188;7.838;2023-11-19T01:16:55;100035.53;;;12.79;74.80
29371;BME280;16357;52.188;7.838;2023-11-19T01:19:22;100030.81;;;12.81;74.76
29371;BME280;16357;52.188;7.838;2023-11-19T01:21:52;100031.25;;;12.84;74.78
29371;BME280;16357;52.188;7.838;2023-11-19T01:24:20;100024.66;;;12.87;74.63
29371;BME280;16357;52.188;7.838;2023-11-19T01:26:46;100031.53;;;12.89;74.81
29371;BME280;16357;52.188;7.838;2023-11-19T01:29:13;100023.28;;;12.91;74.57
29371;BME280;16357;52.188;7.838;2023-11-19T01:31:45;100007.56;;;12.94;74.50
29371;BME280;16357;52.188;7.838;2023-11-19T01:34:13;100009.88;;;12.98;74.40
29371;BME280;16357;52.188;7.838;2023-11-19T01:36:39;100005.13;;;13.00;74.65
29371;BME280;16357;52.188;7.838;2023-11-19T01:39:06;100004.97;;;13.01;74.64
29371;BME280;16357;52.188;7.838;2023-11-19T01:41:36;99998.34;;;13.04;74.81
29371;BME280;16357;52.188;7.838;2023-11-19T01:44:03;100003.53;;;13.05;74.73
29371;BME280;16357;52.188;7.838;2023-11-19T01:46:32;99999.63;;;13.08;74.63
29371;BME280;16357;52.188;7.838;2023-11-19T01:49:00;99994.06;;;13.09;74.66
29371;BME280;16357;52.188;7.838;2023-11-19T01:51:27;100007.97;;;13.13;74.62
29371;BME280;16357;52.188;7.838;2023-11-19T01:53:54;99997.84;;;13.15;74.67
29371;BME280;16357;52.188;7.838;2023-11-19T01:56:22;99978.81;;;13.16;74.83
29371;BME280;16357;52.188;7.838;2023-11-19T01:58:49;99977.38;;;13.21;74.82
29371;BME280;16357;52.188;7.838;2023-11-19T02:01:16;99991.50;;;13.23;74.78
29371;BME280;16357;52.188;7.838;2023-11-19T02:03:43;99986.75;;;13.25;74.71
29371;BME280;16357;52.188;7.838;2023-11-19T02:06:10;99975.63;;;13.28;74.89
29371;BME280;16357;52.188;7.838;2023-11-19T02:08:37;99972.53;;;13.31;75.02
29371;BME280;16357;52.188;7.838;2023-11-19T02:11:05;99969.47;;;13.34;74.75
29371;BME280;16357;52.188;7.838;2023-11-19T02:13:33;99964.72;;;13.36;74.88
29371;BME280;16357;52.188;7.838;2023-11-19T02:16:02;99958.13;;;13.38;74.91
29371;BME280;16357;52.188;7.838;2023-11-19T02:18:30;99957.72;;;13.42;74.86
29371;BME280;16357;52.188;7.838;2023-11-19T02:20:58;99959.19;;;13.44;74.77
29371;BME280;16357;52.188;7.838;2023-11-19T02:23:29;99949.72;;;13.48;74.71
29371;BME280;16357;52.188;7.838;2023-11-19T02:26:15;99959.25;;;13.51;74.59
29371;BME280;16357;52.188;7.838;2023-11-19T02:28:44;99952.66;;;13.53;74.48
29371;BME280;16357;52.188;7.838;2023-11-19T02:31:11;99955.97;;;13.55;74.78
29371;BME280;16357;52.188;7.838;2023-11-19T02:33:38;99949.56;;;13.56;74.70
29371;BME280;16357;52.188;7.838;2023-11-19T02:36:06;99951.84;;;13.59;75.06
29371;BME280;16357;52.188;7.838;2023-11-19T02:38:34;99949.81;;;13.61;74.86
29371;BME280;16357;52.188;7.838;2023-11-19T02:41:03;99946.50;;;13.66;74.87
29371;BME280;16357;52.188;7.838;2023-11-19T02:43:33;99943.63;;;13.68;74.93
29371;BME280;16357;52.188;7.838;2023-11-19T02:46:01;99949.66;;;13.70;75.19
29371;BME280;16357;52.188;7.838;2023-11-19T02:48:28;99937.66;;;13.72;74.87
29371;BME280;16357;52.188;7.838;2023-11-19T02:50:54;99927.47;;;13.74;75.10
29371;BME280;16357;52.188;7.838;2023-11-19T02:53:21;99939.72;;;13.77;75.00
29371;BME280;16357;52.188;7.838;2023-11-19T02:55:48;99934.81;;;13.80;74.95
29371;BME280;16357;52.188;7.838;2023-11-19T02:58:16;99925.50;;;13.83;74.62
29371;BME280;16357;52.188;7.838;2023-11-19T03:00:46;99924.25;;;13.86;74.80
29371;BME280;16357;52.188;7.838;2023-11-19T03:03:18;99905.16;;;13.87;74.90
29371;BME280;16357;52.188;7.838;2023-11-19T03:05:49;99913.72;;;13.91;74.79
29371;BME280;16357;52.188;7.838;2023-11-19T03:08:16;99909.16;;;13.91;74.83
29371;BME280;16357;52.188;7.838;2023-11-19T03:10:45;99909.78;;;13.93;75.03
29371;BME280;16357;52.188;7.838;2023-11-19T03:13:13;99902.31;;;13.95;74.59
29371;BME280;16357;52.188;7.838;2023-11-19T03:15:43;99901.28;;;13.96;74.70
29371;BME280;16357;52.188;7.838;2023-11-19T03:18:10;99906.47;;;13.98;74.54
29371;BME280;16357;52.188;7.838;2023-11-19T03:20:37;99898.19;;;13.99;74.67
29371;BME280;16357;52.188;7.838;2023-11-19T03:23:03;99906.94;;;14.01;74.75
29371;BME280;16357;52.188;7.838;2023-11-19T03:25:30;99908.56;;;14.02;74.57
29371;BME280;16357;52.188;7.838;2023-11-19T03:28:03;99910.03;;;14.05;74.52
29371;BME280;16357;52.188;7.838;2023-11-19T03:30:30;99920.00;;;14.04;74.48
29371;BME280;16357;52.188;7.838;2023-11-19T03:33:01;99929.56;;;14.07;74.63
29371;BME280;16357;52.188;7.838;2023-11-19T03:35:28;99922.31;;;14.08;74.43
29371;BME280;16357;52.188;7.838;2023-11-19T03:37:55;99922.94;;;14.10;74.64
29371;BME280;16357;52.188;7.838;2023-11-19T03:40:22;99908.41;;;14.11;74.55
29371;BME280;16357;52.188;7.838;2023-11-19T03:42:48;99898.25;;;14.13;74.58
29371;BME280;16357;52.188;7.838;2023-11-19T03:45:15;99911.56;;;14.14;74.36
29371;BME280;16357;52.188;7.838;2023-11-19T03:47:42;99907.63;;;14.17;74.50
29371;BME280;16357;52.188;7.838;2023-11-19T03:50:09;99911.16;;;14.17;74.50
29371;BME280;16357;52.188;7.838;2023-11-19T03:52:35;99905.53;;;14.19;74.17
29371;BME280;16357;52.188;7.838;2023-11-19T03:55:05;99914.28;;;14.21;74.39
29371;BME280;16357;52.188;7.838;2023-11-19T03:57:35;99912.22;;;14.23;74.26
29371;BME280;16357;52.188;7.838;2023-11-19T04:00:01;99921.78;;;14.25;74.43
29371;BME280;16357;52.188;7.838;2023-11-19T04:02:35;99917.19;;;14.26;74.38
29371;BME280;16357;52.188;7.838;2023-11-19T04:05:01;99918.88;;;14.27;74.51
29371;BME280;16357;52.188;7.838;2023-11-19T04:07:29;99912.22;;;14.30;74.42
29371;BME280;16357;52.188;7.838;2023-11-19T04:09:56;99913.09;;;14.30;74.31
29371;BME280;16357;52.188;7.838;2023-11-19T04:12:22;99903.94;;;14.31;74.23
29371;BME280;16357;52.188;7.838;2023-11-19T04:14:49;99902.06;;;14.32;74.12
29371;BME280;16357;52.188;7.838;2023-11-19T04:17:27;99896.47;;;14.33;74.12
29371;BME280;16357;52.188;7.838;2023-11-19T04:19:53;99902.53;;;14.35;74.20
29371;BME280;16357;52.188;7.838;2023-11-19T04:22:20;99899.81;;;14.35;74.44
29371;BME280;16357;52.188;7.838;2023-11-19T04:24:47;99905.81;;;14.37;74.26
29371;BME280;16357;52.188;7.838;2023-11-19T04:27:14;99919.94;;;14.39;74.10
29371;BME280;16357;52.188;7.838;2023-11-19T04:29:40;99909.78;;;14.41;74.22
29371;BME280;16357;52.188;7.838;2023-11-19T04:32:06;99899.63;;;14.43;74.15
29371;BME280;16357;52.188;7.838;2023-11-19T04:34:34;99897.56;;;14.45;74.31
29371;BME280;16357;52.188;7.838;2023-11-19T04:37:00;99893.84;;;14.46;74.15
29371;BME280;16357;52.188;7.838;2023-11-19T04:39:33;99886.38;;;14.48;74.11
29371;BME280;16357;52.188;7.838;2023-11-19T04:42:00;99889.69;;;14.50;74.00
29371;BME280;16357;52.188;7.838;2023-11-19T04:44:26;99875.16;;;14.52;74.13
29371;BME280;16357;52.188;7.838;2023-11-19T04:46:52;99874.16;;;14.53;73.99
29371;BME280;16357;52.188;7.838;2023-11-19T04:49:19;99884.75;;;14.54;73.75
29371;BME280;16357;52.188;7.838;2023-11-19T04:51:47;99887.22;;;14.56;73.41
29371;BME280;16357;52.188;7.838;2023-11-19T04:54:14;99882.69;;;14.56;73.46
29371;BME280;16357;52.188;7.838;2023-11-19T04:56:45;99890.56;;;14.58;73.13
29371;BME280;16357;52.188;7.838;2023-11-19T04:59:11;99898.66;;;14.58;73.14
29371;BME280;16357;52.188;7.838;2023-11-19T05:01:38;99891.41;;;14.58;73.12
29371;BME280;16357;52.188;7.838;2023-11-19T05:04:04;99899.50;;;14.58;73.14
29371;BME280;16357;52.188;7.838;2023-11-19T05:06:31;99905.53;;;14.60;73.06
29371;BME280;16357;52.188;7.838;2023-11-19T05:08:59;99900.94;;;14.61;73.01
29371;BME280;16357;52.188;7.838;2023-11-19T05:11:33;99903.88;;;14.66;73.00
29371;BME280;16357;52.188;7.838;2023-11-19T05:14:02;99909.28;;;14.66;72.66
29371;BME280;16357;52.188;7.838;2023-11-19T05:16:30;99907.63;;;14.65;72.74
29371;BME280;16357;52.188;7.838;2023-11-19T05:18:57;99912.19;;;14.64;72.59
29371;BME280;16357;52.188;7.838;2023-11-19T05:21:23;99910.31;;;14.65;72.50
29371;BME280;16357;52.188;7.838;2023-11-19T05:23:50;99921.94;;;14.65;72.58
29371;BME280;16357;52.188;7.838;2023-11-19T05:26:18;99911.97;;;14.66;72.39
29371;BME280;16357;52.188;7.838;2023-11-19T05:28:44;99914.69;;;14.66;71.96
29371;BME280;16357;52.188;7.838;2023-11-19T05:31:11;99913.84;;;14.65;71.67
29371;BME280;16357;52.188;7.838;2023-11-19T05:33:37;99911.34;;;14.64;71.44
29371;BME280;16357;52.188;7.838;2023-11-19T05:36:05;99908.22;;;14.60;71.62
29371;BME280;16357;52.188;7.838;2023-11-19T05:38:32;99906.75;;;14.58;71.35
29371;BME280;16357;52.188;7.838;2023-11-19T05:40:58;99906.13;;;14.56;71.09
29371;BME280;16357;52.188;7.838;2023-11-19T05:43:25;99907.56;;;14.52;70.95
29371;BME280;16357;52.188;7.838;2023-11-19T05:45:51;99908.78;;;14.49;70.68
29371;BME280;16357;52.188;7.838;2023-11-19T05:48:18;99908.34;;;14.45;70.31
29371;BME280;16357;52.188;7.838;2023-11-19T05:50:44;99901.69;;;14.41;70.18
29371;BME280;16357;52.188;7.838;2023-11-19T05:53:10;99922.88;;;14.38;70.28
29371;BME280;16357;52.188;7.838;2023-11-19T05:55:39;99915.38;;;14.33;70.29
29371;BME280;16357;52.188;7.838;2023-11-19T05:58:16;99915.78;;;14.30;70.28
29371;BME280;16357;52.188;7.838;2023-11-19T06:00:42;99938.59;;;14.27;70.10
29371;BME280;16357;52.188;7.838;2023-11-19T06:03:09;99928.22;;;14.24;70.07
29371;BME280;16357;52.188;7.838;2023-11-19T06:05:35;99925.06;;;14.21;70.19
29371;BME280;16357;52.188;7.838;2023-11-19T06:08:02;99923.41;;;14.20;70.32
29371;BME280;16357;52.188;7.838;2023-11-19T06:10:29;99927.97;;;14.19;70.09
29371;BME280;16357;52.188;7.838;2023-11-19T06:12:58;99923.59;;;14.18;70.19
29371;BME280;16357;52.188;7.838;2023-11-19T06:15:26;99928.16;;;14.18;69.80
29371;BME280;16357;52.188;7.838;2023-11-19T06:17:53;99934.59;;;14.17;69.71
29371;BME280;16357;52.188;7.838;2023-11-19T06:20:21;99921.13;;;14.17;69.29
29371;BME280;16357;52.188;7.838;2023-11-19T06:22:47;99927.53;;;14.16;68.93
29371;BME280;16357;52.188;7.838;2023-11-19T06:25:15;99938.53;;;14.14;68.98
29371;BME280;16357;52.188;7.838;2023-11-19T06:27:42;99944.94;;;14.13;68.43
29371;BME280;16357;52.188;7.838;2023-11-19T06:30:09;99933.50;;;14.11;68.40
29371;BME280;16357;52.188;7.838;2023-11-19T06:32:36;99939.75;;;14.12;68.67
29371;BME280;16357;52.188;7.838;2023-11-19T06:35:02;99948.69;;;14.12;68.55
29371;BME280;16357;52.188;7.838;2023-11-19T06:37:30;99939.75;;;14.12;68.38
29371;BME280;16357;52.188;7.838;2023-11-19T06:39:57;99953.03;;;14.13;68.24
29371;BME280;16357;52.188;7.838;2023-11-19T06:42:24;99960.13;;;14.14;68.32
29371;BME280;16357;52.188;7.838;2023-11-19T06:44:50;99960.94;;;14.15;68.04
29371;BME280;16357;52.188;7.838;2023-11-19T06:47:17;99950.78;;;14.17;67.84
29371;BME280;16357;52.188;7.838;2023-11-19T06:49:44;99968.63;;;14.18;67.81
29371;BME280;16357;52.188;7.838;2023-11-19T06:52:11;99953.50;;;14.17;67.28
29371;BME280;16357;52.188;7.838;2023-11-19T06:54:40;99967.59;;;14.19;67.61
29371;BME280;16357;52.188;7.838;2023-11-19T06:57:07;99971.31;;;14.18;66.76
29371;BME280;16357;52.188;7.838;2023-11-19T06:59:35;99965.09;;;14.17;66.88
29371;BME280;16357;52.188;7.838;2023-11-19T07:02:02;99967.81;;;14.17;67.06
29371;BME280;16357;52.188;7.838;2023-11-19T07:04:29;99971.31;;;14.18;66.70
29371;BME280;16357;52.188;7.838;2023-11-19T07:06:55;99972.16;;;14.18;66.85
29371;BME280;16357;52.188;7.838;2023-11-19T07:09:21;99961.38;;;14.18;67.03
29371;BME280;16357;52.188;7.838;2023-11-19T07:11:49;99958.47;;;14.20;66.83
29371;BME280;16357;52.188;7.838;2023-11-19T07:14:18;99962.00;;;14.20;66.88
29371;BME280;16357;52.188;7.838;2023-11-19T07:16:45;99957.44;;;14.21;67.13
29371;BME280;16357;52.188;7.838;2023-11-19T07:19:12;99957.44;;;14.21;67.13
29371;BME280;16357;52.188;7.838;2023-11-19T07:21:42;99965.97;;;14.24;67.38
29371;BME280;16357;52.188;7.838;2023-11-19T07:24:10;99968.88;;;14.23;66.81
29371;BME280;16357;52.188;7.838;2023-11-19T07:26:43;99975.91;;;14.24;67.14
29371;BME280;16357;52.188;7.838;2023-11-19T07:29:10;99970.53;;;14.24;66.92
29371;BME280;16357;52.188;7.838;2023-11-19T07:31:37;99974.06;;;14.24;66.70
29371;BME280;16357;52.188;7.838;2023-11-19T07:34:04;99972.22;;;14.25;66.62
29371;BME280;16357;52.188;7.838;2023-11-19T07:36:32;99971.16;;;14.26;66.52
29371;BME280;16357;52.188;7.838;2023-11-19T07:38:59;99984.66;;;14.26;66.66
29371;BME280;16357;52.188;7.838;2023-11-19T07:41:25;99981.94;;;14.26;66.56
29371;BME280;16357;52.188;7.838;2023-11-19T07:43:52;99989.03;;;14.27;66.59
29371;BME280;16357;52.188;7.838;2023-11-19T07:46:19;99996.28;;;14.26;66.25
29371;BME280;16357;52.188;7.838;2023-11-19T07:48:46;99997.13;;;14.27;66.25
29371;BME280;16357;52.188;7.838;2023-11-19T07:51:15;100004.19;;;14.28;66.30
29371;BME280;16357;52.188;7.838;2023-11-19T07:53:42;99992.56;;;14.27;66.44
29371;BME280;16357;52.188;7.838;2023-11-19T07:56:09;100009.56;;;14.28;66.14
29371;BME280;16357;52.188;7.838;2023-11-19T07:58:36;100018.31;;;14.30;66.03
29371;BME280;16357;52.188;7.838;2023-11-19T08:01:03;100027.22;;;14.31;66.21
29371;BME280;16357;52.188;7.838;2023-11-19T08:03:29;100028.06;;;14.31;66.01
29371;BME280;16357;52.188;7.838;2023-11-19T08:05:56;100014.56;;;14.31;65.63
29371;BME280;16357;52.188;7.838;2023-11-19T08:08:25;100019.97;;;14.31;65.91
29371;BME280;16357;52.188;7.838;2023-11-19T08:10:52;100018.72;;;14.34;65.84
29371;BME280;16357;52.188;7.838;2023-11-19T08:13:20;100017.91;;;14.33;65.56
29371;BME280;16357;52.188;7.838;2023-11-19T08:15:47;100028.69;;;14.33;65.58
29371;BME280;16357;52.188;7.838;2023-11-19T08:18:13;100036.16;;;14.31;65.85
29371;BME280;16357;52.188;7.838;2023-11-19T08:20:40;100029.94;;;14.31;65.42
29371;BME280;16357;52.188;7.838;2023-11-19T08:23:07;100036.97;;;14.32;65.67
29371;BME280;16357;52.188;7.838;2023-11-19T08:25:34;100034.28;;;14.32;66.00
29371;BME280;16357;52.188;7.838;2023-11-19T08:28:01;100037.63;;;14.34;66.08
29371;BME280;16357;52.188;7.838;2023-11-19T08:30:27;100034.75;;;14.35;65.83
29371;BME280;16357;52.188;7.838;2023-11-19T08:32:54;100029.13;;;14.37;65.61
29371;BME280;16357;52.188;7.838;2023-11-19T08:35:20;100032.47;;;14.39;65.65
29371;BME280;16357;52.188;7.838;2023-11-19T08:37:47;100039.50;;;14.40;65.67
29371;BME280;16357;52.188;7.838;2023-11-19T08:40:13;100043.06;;;14.40;65.68
29371;BME280;16357;52.188;7.838;2023-11-19T08:42:40;100040.38;;;14.40;65.48
29371;BME280;16357;52.188;7.838;2023-11-19T08:45:08;100035.81;;;14.41;65.60
29371;BME280;16357;52.188;7.838;2023-11-19T08:47:37;100045.78;;;14.40;65.96
29371;BME280;16357;52.188;7.838;2023-11-19T08:50:04;100049.28;;;14.41;65.57
29371;BME280;16357;52.188;7.838;2023-11-19T08:52:30;100041.38;;;14.39;65.63
29371;BME280;16357;52.188;7.838;2023-11-19T08:55:00;100054.06;;;14.39;65.62
29371;BME280;16357;52.188;7.838;2023-11-19T08:57:27;100047.00;;;14.38;65.66
29371;BME280;16357;52.188;7.838;2023-11-19T08:59:53;100053.22;;;14.38;65.59
29371;BME280;16357;52.188;7.838;2023-11-19T09:02:20;100042.44;;;14.38;65.75
29371;BME280;16357;52.188;7.838;2023-11-19T09:04:46;100058.41;;;14.40;66.19
29371;BME280;16357;52.188;7.838;2023-11-19T09:07:15;100063.63;;;14.41;65.90
29371;BME280;16357;52.188;7.838;2023-11-19T09:09:41;100057.81;;;14.44;65.95
29371;BME280;16357;52.188;7.838;2023-11-19T09:12:08;100062.81;;;14.47;65.68
29371;BME280;16357;52.188;7.838;2023-11-19T09:14:34;100041.69;;;14.51;65.69
29371;BME280;16357;52.188;7.838;2023-11-19T09:17:01;100058.31;;;14.55;65.58
29371;BME280;16357;52.188;7.838;2023-11-19T09:19:28;100059.59;;;14.59;65.65
29371;BME280;16357;52.188;7.838;2023-11-19T09:21:54;100066.25;;;14.63;65.58
29371;BME280;16357;52.188;7.838;2023-11-19T09:24:21;100054.03;;;14.67;65.06
29371;BME280;16357;52.188;7.838;2023-11-19T09:26:47;100057.34;;;14.69;65.40
29371;BME280;16357;52.188;7.838;2023-11-19T09:29:14;100058.63;;;14.73;64.98
29371;BME280;16357;52.188;7.838;2023-11-19T09:31:41;100067.38;;;14.75;64.53
29371;BME280;16357;52.188;7.838;2023-11-19T09:34:07;100058.03;;;14.78;64.68
29371;BME280;16357;52.188;7.838;2023-11-19T09:36:34;100060.53;;;14.79;64.95
29371;BME280;16357;52.188;7.838;2023-11-19T09:39:00;100065.72;;;14.81;64.95
29371;BME280;16357;52.188;7.838;2023-11-19T09:41:30;100064.28;;;14.85;64.95
29371;BME280;16357;52.188;7.838;2023-11-19T09:43:57;100061.38;;;14.86;64.91
29371;BME280;16357;52.188;7.838;2023-11-19T09:46:24;100057.28;;;14.90;65.01
29371;BME280;16357;52.188;7.838;2023-11-19T09:48:53;100057.50;;;14.96;65.21
29371;BME280;16357;52.188;7.838;2023-11-19T09:51:23;100054.38;;;14.99;65.00
29371;BME280;16357;52.188;7.838;2023-11-19T09:53:49;100057.31;;;15.04;64.93
29371;BME280;16357;52.188;7.838;2023-11-19T09:56:16;100053.16;;;15.08;64.86
29371;BME280;16357;52.188;7.838;2023-11-19T09:58:46;100057.97;;;15.12;64.63
29371;BME280;16357;52.188;7.838;2023-11-19T10:01:13;100047.56;;;15.16;64.29
29371;BME280;16357;52.188;7.838;2023-11-19T10:03:46;100046.97;;;15.21;64.51
29371;BME280;16357;52.188;7.838;2023-11-19T10:06:15;100050.31;;;15.23;64.01
29371;BME280;16357;52.188;7.838;2023-11-19T10:08:42;100044.47;;;15.26;64.23
29371;BME280;16357;52.188;7.838;2023-11-19T10:11:09;100044.91;;;15.29;64.04
29371;BME280;16357;52.188;7.838;2023-11-19T10:13:38;100038.25;;;15.32;63.68
29371;BME280;16357;52.188;7.838;2023-11-19T10:16:09;100044.09;;;15.35;63.84
29371;BME280;16357;52.188;7.838;2023-11-19T10:18:38;100041.19;;;15.37;63.44
29371;BME280;16357;52.188;7.838;2023-11-19T10:21:12;100037.03;;;15.41;63.17
29371;BME280;16357;52.188;7.838;2023-11-19T10:23:50;100047.44;;;15.44;63.00
29371;BME280;16357;52.188;7.838;2023-11-19T10:26:18;100042.84;;;15.45;62.98
29371;BME280;16357;52.188;7.838;2023-11-19T10:28:46;100047.25;;;15.46;62.83
29371;BME280;16357;52.188;7.838;2023-11-19T10:31:17;100036.00;;;15.49;63.09
29371;BME280;16357;52.188;7.838;2023-11-19T10:33:44;100031.44;;;15.49;62.62
29371;BME280;16357;52.188;7.838;2023-11-19T10:36:12;100032.06;;;15.51;62.52
29371;BME280;16357;52.188;7.838;2023-11-19T10:38:39;100027.50;;;15.52;62.70
29371;BME280;16357;52.188;7.838;2023-11-19T10:41:07;100031.84;;;15.53;62.42
29371;BME280;16357;52.188;7.838;2023-11-19T10:43:51;100032.47;;;15.55;62.68
29371;BME280;16357;52.188;7.838;2023-11-19T10:46:18;100035.19;;;15.55;62.38
29371;BME280;16357;52.188;7.838;2023-11-19T10:48:49;100034.34;;;15.54;61.98
29371;BME280;16357;52.188;7.838;2023-11-19T10:51:19;100034.53;;;15.53;61.91
29371;BME280;16357;52.188;7.838;2023-11-19T10:53:51;100036.00;;;15.49;62.28
29371;BME280;16357;52.188;7.838;2023-11-19T10:56:18;100030.16;;;15.45;62.02
29371;BME280;16357;52.188;7.838;2023-11-19T10:58:47;100032.66;;;15.40;62.70
29371;BME280;16357;52.188;7.838;2023-11-19T11:01:19;100027.06;;;15.35;62.46
29371;BME280;16357;52.188;7.838;2023-11-19T11:03:48;100034.09;;;15.29;62.75
29371;BME280;16357;52.188;7.838;2023-11-19T11:06:18;100026.63;;;15.25;62.74
29371;BME280;16357;52.188;7.838;2023-11-19T11:08:46;100028.25;;;15.19;62.80
29371;BME280;16357;52.188;7.838;2023-11-19T11:11:15;100009.97;;;15.14;63.21
29371;BME280;16357;52.188;7.838;2023-11-19T11:13:44;100011.63;;;15.09;63.33
29371;BME280;16357;52.188;7.838;2023-11-19T11:16:11;100003.28;;;15.04;63.26
29371;BME280;16357;52.188;7.838;2023-11-19T11:18:39;100018.22;;;15.00;63.36
29371;BME280;16357;52.188;7.838;2023-11-19T11:21:12;100034.84;;;14.97;63.17
29371;BME280;16357;52.188;7.838;2023-11-19T11:24:12;100021.75;;;14.93;63.81
29371;BME280;16357;52.188;7.838;2023-11-19T11:27:17;100009.91;;;14.95;64.22
29371;BME280;16357;52.188;7.838;2023-11-19T11:29:56;100008.25;;;14.93;63.59
29371;BME280;16357;52.188;7.838;2023-11-19T11:38:06;100006.00;;;15.04;63.80
29371;BME280;16357;52.188;7.838;2023-11-19T11:40:34;100003.69;;;15.07;63.29
29371;BME280;16357;52.188;7.838;2023-11-19T11:43:00;100003.09;;;15.12;63.11
29371;BME280;16357;52.188;7.838;2023-11-19T11:45:40;100015.78;;;15.18;63.08
29371;BME280;16357;52.188;7.838;2023-11-19T11:48:15;100015.19;;;15.23;62.97
29371;BME280;16357;52.188;7.838;2023-11-19T11:50:53;100011.22;;;15.25;63.01
29371;BME280;16357;52.188;7.838;2023-11-19T11:53:22;100018.28;;;15.26;62.68
29371;BME280;16357;52.188;7.838;2023-11-19T11:58:35;100007.06;;;15.29;62.43
29371;BME280;16357;52.188;7.838;2023-11-19T12:01:03;100008.94;;;15.29;62.26
29371;BME280;16357;52.188;7.838;2023-11-19T12:03:32;100001.88;;;15.28;62.10
29371;BME280;16357;52.188;7.838;2023-11-19T12:05:59;100001.06;;;15.27;61.79
29371;BME280;16357;52.188;7.838;2023-11-19T12:08:28;100002.06;;;15.26;62.14
29371;BME280;16357;52.188;7.838;2023-11-19T12:10:55;100010.19;;;15.26;61.77
29371;BME280;16357;52.188;7.838;2023-11-19T12:13:44;100003.75;;;15.27;62.11
29371;BME280;16357;52.188;7.838;2023-11-19T12:16:12;99996.91;;;15.25;62.02
29371;BME280;16357;52.188;7.838;2023-11-19T12:18:40;99999.38;;;15.26;62.24
29371;BME280;16357;52.188;7.838;2023-11-19T12:21:07;100002.06;;;15.26;62.16
29371;BME280;16357;52.188;7.838;2023-11-19T12:23:44;99993.78;;;15.28;62.01
29371;BME280;16357;52.188;7.838;2023-11-19T12:26:21;99987.13;;;15.30;61.85
29371;BME280;16357;52.188;7.838;2023-11-19T12:28:58;99979.25;;;15.35;62.31
29371;BME280;16357;52.188;7.838;2023-11-19T12:31:25;99960.09;;;15.37;61.91
29371;BME280;16357;52.188;7.838;2023-11-19T12:33:52;99981.53;;;15.39;61.82
29371;BME280;16357;52.188;7.838;2023-11-19T12:36:19;99974.03;;;15.41;61.58
29371;BME280;16357;52.188;7.838;2023-11-19T12:38:46;99971.94;;;15.43;61.86
29371;BME280;16357;52.188;7.838;2023-11-19T12:41:12;99973.22;;;15.47;61.56
29371;BME280;16357;52.188;7.838;2023-11-19T12:43:39;99963.84;;;15.49;61.52
29371;BME280;16357;52.188;7.838;2023-11-19T12:46:19;99960.31;;;15.55;61.58
29371;BME280;16357;52.188;7.838;2023-11-19T12:48:50;99962.59;;;15.58;61.66
29371;BME280;16357;52.188;7.838;2023-11-19T12:51:17;99959.28;;;15.63;61.34
29371;BME280;16357;52.188;7.838;2023-11-19T12:53:48;99965.09;;;15.67;61.16
29371;BME280;16357;52.188;7.838;2023-11-19T12:56:16;99953.25;;;15.68;60.73
29371;BME280;16357;52.188;7.838;2023-11-19T12:58:42;99951.38;;;15.68;60.79
29371;BME280;16357;52.188;7.838;2023-11-19T13:01:09;99949.50;;;15.69;60.32
29371;BME280;16357;52.188;7.838;2023-11-19T13:03:38;99949.50;;;15.69;60.67
29371;BME280;16357;52.188;7.838;2023-11-19T13:06:07;99962.00;;;15.70;60.40
29371;BME280;16357;52.188;7.838;2023-11-19T13:08:48;99960.13;;;15.70;60.72